ADDS METAR Data INFO
IDs: Format: Raw Decoded Include TAF

Data at: 2011 UTC 18 Jul 2018

K4V0 182000Z AUTO 00000KT 10SM SCT110 34/04 A3016 RMK AO2 T03360044
K4V0 181935Z AUTO 02004KT 10SM CLR 33/05 A3018 RMK AO2 T03310047
K4V0 181915Z AUTO 25007G15KT 10SM CLR 34/05 A3018 RMK AO2 T03420049
K4V0 181855Z AUTO 24008KT 220V280 10SM CLR 33/04 A3019 RMK AO2 T03320044
K4V0 181835Z AUTO 21006KT 10SM CLR 33/05 A3020 RMK AO2 T03270052
K4V0 181815Z AUTO 00000KT 10SM CLR 32/05 A3020 RMK AO2 T03160054
K4V0 181755Z AUTO 00000KT 10SM CLR 31/06 A3021 RMK AO2 T03090064 10309 20125
K4V0 181740Z AUTO 33003KT 10SM CLR 31/06 A3022 RMK AO2 T03060062
K4V0 181715Z AUTO 32004KT 10SM CLR 30/07 A3022 RMK AO2 T02980070
K4V0 181655Z AUTO 33004KT 10SM CLR 29/08 A3023 RMK AO2 T02870080
K4V0 181635Z AUTO 33003KT 10SM CLR 28/08 A3023 RMK AO2 T02760079
K4V0 181615Z AUTO 00000KT 10SM CLR 26/08 A3023 RMK AO2 T02620082
K4V0 181555Z AUTO 00000KT 10SM CLR 25/08 A3024 RMK AO2 T02500075
K4V0 181535Z AUTO 00000KT 10SM CLR 24/07 A3024 RMK AO2 T02410068
K4V0 181515Z AUTO 00000KT 10SM CLR 23/08 A3025 RMK AO2 T02320075
K4V0 181455Z AUTO 00000KT 10SM CLR 22/08 A3025 RMK AO2 T02210079
K4V0 181435Z AUTO 00000KT 10SM CLR 21/09 A3025 RMK AO2 T02070091
K4V0 181415Z AUTO 00000KT 10SM CLR 20/08 A3026 RMK AO2 T01960078
K4V0 181355Z AUTO 09003KT 10SM CLR 19/08 A3025 RMK AO2 T01860082
K4V0 181335Z AUTO 00000KT 10SM CLR 16/08 A3025 RMK AO2 T01610076
K4V0 181315Z AUTO 00000KT 10SM CLR 16/06 A3025 RMK AO2 T01630062
K4V0 181255Z AUTO 09003KT 10SM CLR 14/07 A3025 RMK AO2 T01350067
K4V0 181235Z AUTO 00000KT 10SM CLR 13/07 A3025 RMK AO2 T01320067
K4V0 181215Z AUTO 00000KT 10SM CLR 13/07 A3024 RMK AO2 T01330070
K4V0 181155Z AUTO 00000KT 10SM CLR 15/07 A3024 RMK AO2 T01500065 10220 20130
K4V0 181135Z AUTO 00000KT 10SM CLR 14/06 A3023 RMK AO2 T01400063
K4V0 181115Z AUTO 00000KT 10SM CLR 13/07 A3021 RMK AO2 T01310070
K4V0 181055Z AUTO 00000KT 10SM CLR 15/06 A3021 RMK AO2 T01470061
K4V0 181035Z AUTO 11003KT 10SM CLR 15/06 A3021 RMK AO2 T01480061
K4V0 181015Z AUTO 00000KT 10SM CLR 15/06 A3021 RMK AO2 T01540063
K4V0 180955Z AUTO 00000KT 10SM CLR 15/09 A3021 RMK AO2 T01450085
K4V0 180935Z AUTO 04003KT 10SM CLR 15/08 A3020 RMK AO2 T01470075
K4V0 180915Z AUTO 00000KT 10SM CLR 16/08 A3020 RMK AO2 T01570076
K4V0 180900Z AUTO 00000KT 10SM CLR 17/07 A3020 RMK AO2 T01720067
K4V0 180835Z AUTO 10004KT 10SM CLR 18/06 A3020 RMK AO2 T01820059
K4V0 180815Z AUTO 11005KT 10SM CLR 17/07 A3020 RMK AO2 T01710073
K4V0 180755Z AUTO 11003KT 10SM SCT110 18/05 A3019 RMK AO2 T01820047
K4V0 180735Z AUTO 00000KT 10SM SCT110 19/07 A3018 RMK AO2 T01870071
K4V0 180715Z AUTO 00000KT 10SM SCT110 20/06 A3018 RMK AO2 T01950064
K4V0 180655Z AUTO 00000KT 10SM SCT120 20/06 A3018 RMK AO2 T02000064 403420127
K4V0 180635Z AUTO 00000KT 10SM SCT120 20/06 A3019 RMK AO2 T02020062
K4V0 180615Z AUTO 00000KT 10SM CLR 20/07 A3018 RMK AO2 T01980069
K4V0 180555Z AUTO 00000KT 10SM CLR 20/07 A3018 RMK AO2 T01990070 10331 20196
K4V0 180540Z AUTO 00000KT 10SM CLR 23/06 A3018 RMK AO2 T02310056
K4V0 180515Z AUTO 19007KT 10SM CLR 25/05 A3018 RMK AO2 T02510050
K4V0 180455Z AUTO 00000KT 10SM CLR 22/07 A3017 RMK AO2 T02200070
K4V0 180435Z AUTO 00000KT 10SM CLR 22/07 A3017 RMK AO2 T02150072
K4V0 180420Z AUTO 00000KT 10SM CLR 23/06 A3016 RMK AO2 T02330064
K4V0 180355Z AUTO 00000KT 10SM CLR 24/07 A3015 RMK AO2 T02430068
K4V0 180335Z AUTO 00000KT 10SM SCT120 25/08 A3014 RMK AO2 T02450082
K4V0 180315Z AUTO 22003KT 10SM CLR 28/06 A3014 RMK AO2 T02770056
K4V0 180300Z AUTO 21004KT 10SM CLR 29/06 A3014 RMK AO2 T02850055
K4V0 180235Z AUTO 20006KT 10SM CLR 30/05 A3013 RMK AO2 LTG DSNT SW T03000052
K4V0 180215Z AUTO 19007KT 10SM CLR 31/05 A3013 RMK AO2 T03070054
K4V0 180155Z AUTO 19008KT 10SM CLR 30/06 A3012 RMK AO2 T03030055
K4V0 180135Z AUTO 20006KT 10SM CLR 31/05 A3012 RMK AO2 T03060053
K4V0 180115Z AUTO 19008KT 10SM CLR 32/05 A3012 RMK AO2 T03150054
K4V0 180055Z AUTO 20008KT 10SM CLR 32/05 A3012 RMK AO2 T03160054
K4V0 180035Z AUTO 18010KT 10SM CLR 33/06 A3013 RMK AO2 T03260056
K4V0 180015Z AUTO 21006KT 10SM CLR 33/05 A3014 RMK AO2 T03290051
K4V0 172355Z AUTO 23006KT 10SM CLR 32/05 A3014 RMK AO2 T03150052 10342 20295
K4V0 172335Z AUTO 27005KT 10SM CLR 31/06 A3014 RMK AO2 T03140058
K4V0 172315Z AUTO 00000KT 10SM CLR 32/06 A3016 RMK AO2 T03160061
K4V0 172300Z AUTO 33003KT 10SM CLR 31/08 A3017 RMK AO2 LTG DSNT S T03100082
K4V0 172235Z AUTO 27005KT 10SM CLR 31/06 A3017 RMK AO2 LTG DSNT S AND SW T03130058
K4V0 172215Z AUTO 28008KT 10SM CLR 32/07 A3016 RMK AO2 T03200069
K4V0 172155Z AUTO 32010KT 10SM CLR 32/08 A3016 RMK AO2 T03170077
K4V0 172135Z AUTO 31010G17KT 10SM CLR 32/08 A3017 RMK AO2 T03150082
K4V0 172115Z AUTO 30014G19KT 10SM CLR 33/07 A3018 RMK AO2 T03280072
K4V0 172100Z AUTO 29013G23KT 10SM SCT110 33/07 A3018 RMK AO2 LTG DSNT SE T03270066
K4V0 172035Z AUTO 28005KT 10SM BKN110 34/07 A3018 RMK AO2 LTG DSNT SE T03420066
K4V0 172015Z AUTO 24009KT 10SM CLR 34/06 A3018 RMK AO2 T03380062
K4V0 171955Z AUTO 29008G15KT 10SM CLR 34/06 A3019 RMK AO2 LTG DSNT NW T03400062
K4V0 171935Z AUTO 29004KT 10SM CLR 33/07 A3019 RMK AO2 LTG DSNT NW T03290065
K4V0 171920Z AUTO 28010KT 10SM CLR 33/07 A3020 RMK AO2 LTG DSNT NW T03300070
K4V0 171900Z AUTO 00000KT 10SM CLR 32/07 A3020 RMK AO2 T03200068
K4V0 171840Z AUTO 27003KT 10SM CLR 31/08 A3022 RMK AO2 T03140078
K4V0 171815Z AUTO 00000KT 10SM CLR 30/08 A3022 RMK AO2 T03030078
K4V0 171755Z AUTO 32006KT 10SM CLR 30/09 A3023 RMK AO2 T02960090 10296 20130
K4V0 171735Z AUTO 28006KT 10SM CLR 30/09 A3023 RMK AO2 T02950091
K4V0 171715Z AUTO 00000KT 10SM CLR 29/09 A3024 RMK AO2 LTG DSNT W T02850090
K4V0 171655Z AUTO 30003KT 10SM CLR 28/09 A3024 RMK AO2 T02780094
K4V0 171635Z AUTO 00000KT 10SM CLR 27/09 A3025 RMK AO2 T02700092
K4V0 171615Z AUTO 33003KT 10SM CLR 26/10 A3025 RMK AO2 T02580099
K4V0 171555Z AUTO 00000KT 10SM CLR 25/10 A3026 RMK AO2 T02500102
K4V0 171535Z AUTO 00000KT 10SM CLR 24/10 A3026 RMK AO2 T02370096
K4V0 171510Z AUTO 00000KT 10SM CLR 22/11 A3026 RMK AO2 T02220106
K4V0 171455Z AUTO 00000KT 10SM CLR 22/10 A3026 RMK AO2 T02170098
K4V0 171435Z AUTO 00000KT 10SM CLR 22/09 A3026 RMK AO2 T02150093
K4V0 171415Z AUTO 13003KT 10SM CLR 21/09 A3026 RMK AO2 T02060094
K4V0 171355Z AUTO 12005KT 10SM CLR 20/10 A3025 RMK AO2 T01970098
K4V0 171335Z AUTO 10006KT 10SM CLR 19/09 A3025 RMK AO2 T01870094
K4V0 171315Z AUTO 10007KT 10SM CLR 17/10 A3025 RMK AO2 T01690097
K4V0 171255Z AUTO 00000KT 10SM CLR 14/11 A3025 RMK AO2 T01430105
K4V0 171235Z AUTO 00000KT 10SM CLR 14/10 A3025 RMK AO2 T01370096
K4V0 171210Z AUTO 00000KT 10SM CLR 13/10 A3025 RMK AO2 T01300098
K4V0 171155Z AUTO 00000KT 10SM CLR 14/10 A3026 RMK AO2 T01360095 10182 20127
K4V0 171135Z AUTO 00000KT 10SM CLR 13/10 A3026 RMK AO2 LTG DSNT NW T01320102
K4V0 171115Z AUTO 00000KT 10SM CLR 13/10 A3026 RMK AO2 T01290098
K4V0 171100Z AUTO 05003KT 10SM CLR 13/10 A3025 RMK AO2 T01310100
K4V0 171035Z AUTO 00000KT 10SM CLR 13/10 A3025 RMK AO2 T01300096
K4V0 171015Z AUTO 00000KT 10SM CLR 14/10 A3023 RMK AO2 T01400097
K4V0 170955Z AUTO 00000KT 10SM CLR 14/10 A3022 RMK AO2 T01430100
K4V0 170935Z AUTO 00000KT 10SM CLR 14/10 A3021 RMK AO2 T01370098
K4V0 170920Z AUTO 00000KT 10SM CLR 14/10 A3020 RMK AO2 T01360104
K4V0 170855Z AUTO 12005KT 10SM CLR 15/10 A3020 RMK AO2 T01540101
K4V0 170830Z AUTO 00000KT 10SM CLR 15/11 A3020 RMK AO2 T01500109
K4V0 170820Z AUTO 00000KT 10SM CLR 17/11 A3019 RMK AO2 T01650109